BAW269 EGLL-KLAX
Flight info
| Callsign | BAW269 |
|---|---|
| Flight time | N/A |
| Altitude | 36000 |
| Route | ULTIB T420 TNT UL28 PENIL DCT DEJEM DCT OZRAT DCT WETFI DCT SUROX DCT REVNU DCT PIGET DCT SUNOT/M085F360 DCT 58N020W 60N030W 61N040W 62N050W DCT NIFTY DCT MIBNO/N0501F360 DCT TUNNI DCT 58N080W 54N090W DCT HML DCT KP09A DCT DPR DCT KD75U DCT MLF DCT WINEN Q73 HAKMN ANJLL4 |
| Aircraft | B789/H-SDE1E2E3FGHIJ2J3J4J5M1RWXY/LB1D1 |
Departure
| Time | 2026-05-07 05:42 |
|---|---|
| Airport | London Heathrow Airport (EGLL) |
Arrival
| Time | N/A |
|---|---|
| Airport | Los Angeles International Airport (KLAX) |
| Time | Latitude | Longitude | Altitude | Speed | Heading |
|---|---|---|---|---|---|
| 2026-05-07 05:16 | 51.46980 | -0.48022 | 94 ft | 0 kts | 270° |
| 2026-05-07 05:35 | 51.46980 | -0.48002 | 76 ft | 4 kts | 270° |
| 2026-05-07 05:35 | 51.46980 | -0.47959 | 72 ft | 4 kts | 270° |
| 2026-05-07 05:35 | 51.46980 | -0.47920 | 92 ft | 2 kts | 270° |
| 2026-05-07 05:35 | 51.46983 | -0.47888 | 93 ft | 4 kts | 237° |
| 2026-05-07 05:36 | 51.46996 | -0.47871 | 93 ft | 4 kts | 188° |
| 2026-05-07 05:36 | 51.47021 | -0.47869 | 92 ft | 4 kts | 180° |
| 2026-05-07 05:36 | 51.47037 | -0.47869 | 91 ft | 0 kts | 180° |
| 2026-05-07 05:38 | 51.47036 | -0.47869 | 91 ft | 1 kts | 180° |
| 2026-05-07 05:38 | 51.46988 | -0.47869 | 91 ft | 15 kts | 179° |
| 2026-05-07 05:39 | 51.46857 | -0.47868 | 91 ft | 9 kts | 179° |
| 2026-05-07 05:39 | 51.46740 | -0.47867 | 91 ft | 26 kts | 180° |
| 2026-05-07 05:39 | 51.46653 | -0.47949 | 95 ft | 12 kts | 268° |
| 2026-05-07 05:39 | 51.46652 | -0.48174 | 91 ft | 29 kts | 269° |
| 2026-05-07 05:40 | 51.46652 | -0.48489 | 91 ft | 20 kts | 269° |
| 2026-05-07 05:40 | 51.46647 | -0.48704 | 93 ft | 17 kts | 249° |
| 2026-05-07 05:40 | 51.46578 | -0.48777 | 94 ft | 12 kts | 197° |
| 2026-05-07 05:40 | 51.46506 | -0.48760 | 95 ft | 8 kts | 142° |
| 2026-05-07 05:41 | 51.46483 | -0.48701 | 94 ft | 4 kts | 108° |
| 2026-05-07 05:41 | 51.46481 | -0.48683 | 95 ft | 0 kts | 96° |
| 2026-05-07 05:41 | 51.46481 | -0.48682 | 95 ft | 1 kts | 96° |
| 2026-05-07 05:41 | 51.46479 | -0.48404 | 92 ft | 57 kts | 90° |
| 2026-05-07 05:42 | 51.46481 | -0.47404 | 91 ft | 121 kts | 90° |
| 2026-05-07 05:42 | 51.46486 | -0.45740 | 109 ft | 172 kts | 89° |
| 2026-05-07 05:42 | 51.46491 | -0.43861 | 719 ft | 170 kts | 88° |
| 2026-05-07 05:42 | 51.46547 | -0.41912 | 1399 ft | 174 kts | 81° |
| 2026-05-07 05:43 | 51.47112 | -0.40129 | 1793 ft | 199 kts | 46° |
| 2026-05-07 05:43 | 51.48202 | -0.38528 | 2237 ft | 226 kts | 46° |
| 2026-05-07 05:43 | 51.49299 | -0.36493 | 2732 ft | 254 kts | 51° |
| 2026-05-07 05:43 | 51.50416 | -0.34271 | 3781 ft | 257 kts | 50° |
| 2026-05-07 05:44 | 51.51572 | -0.32032 | 4814 ft | 264 kts | 51° |
| 2026-05-07 05:44 | 51.52379 | -0.29379 | 5760 ft | 273 kts | 75° |
| 2026-05-07 05:44 | 51.52984 | -0.26325 | 6226 ft | 296 kts | 68° |
| 2026-05-07 05:44 | 51.53700 | -0.23423 | 7742 ft | 273 kts | 69° |
| 2026-05-07 05:45 | 51.54395 | -0.20513 | 8278 ft | 288 kts | 64° |
| 2026-05-07 05:45 | 51.55715 | -0.18095 | 8168 ft | 288 kts | 31° |
| 2026-05-07 05:45 | 51.57574 | -0.17053 | 8412 ft | 285 kts | 1° |
| 2026-05-07 05:45 | 51.59480 | -0.17403 | 9457 ft | 279 kts | 336° |
| 2026-05-07 05:46 | 51.61071 | -0.19172 | 10183 ft | 282 kts | 309° |
| 2026-05-07 05:46 | 51.62013 | -0.21929 | 10913 ft | 284 kts | 290° |
| 2026-05-07 05:46 | 51.62877 | -0.24821 | 11606 ft | 288 kts | 302° |
| 2026-05-07 05:46 | 51.64229 | -0.27187 | 12330 ft | 291 kts | 331° |
| 2026-05-07 05:47 | 51.66059 | -0.28641 | 12972 ft | 298 kts | 330° |
| 2026-05-07 05:47 | 51.67877 | -0.30249 | 13714 ft | 300 kts | 335° |
| 2026-05-07 05:47 | 51.69797 | -0.31613 | 14369 ft | 304 kts | 334° |
| 2026-05-07 05:47 | 51.71674 | -0.33207 | 15034 ft | 306 kts | 328° |
| 2026-05-07 05:48 | 51.73482 | -0.35050 | 15687 ft | 309 kts | 326° |
| 2026-05-07 05:48 | 51.75314 | -0.36907 | 16269 ft | 316 kts | 328° |
| 2026-05-07 05:48 | 51.77278 | -0.38793 | 16301 ft | 341 kts | 329° |
| 2026-05-07 05:48 | 51.79391 | -0.40796 | 16355 ft | 362 kts | 328° |
| 2026-05-07 05:49 | 51.81557 | -0.42895 | 17084 ft | 363 kts | 328° |
| 2026-05-07 05:49 | 51.83702 | -0.44990 | 17712 ft | 367 kts | 328° |
| 2026-05-07 05:49 | 51.85906 | -0.47133 | 18346 ft | 371 kts | 328° |
| 2026-05-07 05:49 | 51.88133 | -0.49292 | 18897 ft | 375 kts | 328° |
| 2026-05-07 05:50 | 51.90376 | -0.51472 | 19453 ft | 378 kts | 328° |
| 2026-05-07 05:50 | 51.92637 | -0.53676 | 20000 ft | 381 kts | 328° |
| 2026-05-07 05:50 | 51.94917 | -0.55902 | 20530 ft | 384 kts | 328° |
| 2026-05-07 05:50 | 51.97232 | -0.58163 | 20854 ft | 393 kts | 328° |
| 2026-05-07 05:51 | 51.99582 | -0.60460 | 21411 ft | 395 kts | 328° |
| 2026-05-07 05:51 | 52.01947 | -0.62774 | 21903 ft | 399 kts | 328° |
| 2026-05-07 05:51 | 52.04329 | -0.65110 | 22408 ft | 401 kts | 328° |
| 2026-05-07 05:51 | 52.06728 | -0.67464 | 22890 ft | 405 kts | 329° |
| 2026-05-07 05:52 | 52.09148 | -0.69842 | 23369 ft | 408 kts | 329° |
| 2026-05-07 05:52 | 52.11583 | -0.72237 | 23810 ft | 410 kts | 329° |
| 2026-05-07 05:52 | 52.14032 | -0.74650 | 24208 ft | 412 kts | 329° |
| 2026-05-07 05:52 | 52.16493 | -0.77078 | 24581 ft | 415 kts | 329° |
| 2026-05-07 05:53 | 52.18969 | -0.79526 | 24951 ft | 418 kts | 329° |
| 2026-05-07 05:53 | 52.21462 | -0.81992 | 25326 ft | 420 kts | 329° |
| 2026-05-07 05:53 | 52.23967 | -0.84475 | 25697 ft | 422 kts | 329° |
| 2026-05-07 05:53 | 52.26485 | -0.86973 | 26058 ft | 425 kts | 329° |
| 2026-05-07 05:54 | 52.29014 | -0.89484 | 26425 ft | 427 kts | 329° |
| 2026-05-07 05:54 | 52.31555 | -0.92008 | 26790 ft | 428 kts | 329° |
| 2026-05-07 05:54 | 52.34108 | -0.94549 | 27138 ft | 431 kts | 329° |
| 2026-05-07 05:54 | 52.36671 | -0.97104 | 27482 ft | 433 kts | 329° |
| 2026-05-07 05:55 | 52.39248 | -0.99677 | 27807 ft | 435 kts | 329° |
| 2026-05-07 05:55 | 52.41842 | -1.02269 | 28095 ft | 438 kts | 329° |
| 2026-05-07 05:55 | 52.44447 | -1.04876 | 28421 ft | 440 kts | 330° |
| 2026-05-07 05:55 | 52.47065 | -1.07500 | 28725 ft | 442 kts | 330° |
| 2026-05-07 05:56 | 52.49695 | -1.10140 | 29022 ft | 444 kts | 330° |
| 2026-05-07 05:56 | 52.52333 | -1.12797 | 29322 ft | 446 kts | 330° |
| 2026-05-07 05:56 | 52.54984 | -1.15473 | 29615 ft | 448 kts | 330° |
| 2026-05-07 05:56 | 52.57642 | -1.18158 | 29902 ft | 450 kts | 330° |
| 2026-05-07 05:57 | 52.60317 | -1.20856 | 30170 ft | 452 kts | 330° |
| 2026-05-07 05:57 | 52.63005 | -1.23570 | 30411 ft | 454 kts | 330° |
| 2026-05-07 05:57 | 52.65698 | -1.26298 | 30650 ft | 456 kts | 330° |
| 2026-05-07 05:57 | 52.68402 | -1.29041 | 30886 ft | 457 kts | 330° |
| 2026-05-07 05:58 | 52.71114 | -1.31795 | 31119 ft | 459 kts | 330° |
| 2026-05-07 05:58 | 52.73837 | -1.34566 | 31422 ft | 461 kts | 330° |
| 2026-05-07 05:58 | 52.76569 | -1.37351 | 31653 ft | 462 kts | 330° |
| 2026-05-07 05:58 | 52.79305 | -1.40146 | 31914 ft | 463 kts | 330° |
| 2026-05-07 05:59 | 52.82052 | -1.42954 | 32128 ft | 465 kts | 330° |
| 2026-05-07 05:59 | 52.84806 | -1.45774 | 32348 ft | 467 kts | 330° |
| 2026-05-07 05:59 | 52.87570 | -1.48608 | 32563 ft | 468 kts | 330° |
| 2026-05-07 05:59 | 52.90342 | -1.51456 | 32764 ft | 470 kts | 330° |
| 2026-05-07 06:00 | 52.93125 | -1.54319 | 32932 ft | 472 kts | 330° |
| 2026-05-07 06:00 | 52.95919 | -1.57197 | 33144 ft | 473 kts | 330° |
| 2026-05-07 06:00 | 52.98723 | -1.60091 | 33341 ft | 475 kts | 330° |
| 2026-05-07 06:00 | 53.01528 | -1.62990 | 33564 ft | 475 kts | 329° |
| 2026-05-07 06:01 | 53.04328 | -1.65889 | 33961 ft | 472 kts | 329° |
| 2026-05-07 06:01 | 53.07110 | -1.68773 | 34225 ft | 472 kts | 329° |
| 2026-05-07 06:01 | 53.09895 | -1.71667 | 34428 ft | 472 kts | 329° |
| 2026-05-07 06:01 | 53.12682 | -1.74569 | 34658 ft | 472 kts | 329° |
| 2026-05-07 06:02 | 53.15465 | -1.77470 | 34858 ft | 472 kts | 329° |
| 2026-05-07 06:02 | 53.18251 | -1.80379 | 35085 ft | 472 kts | 329° |
| 2026-05-07 06:02 | 53.21009 | -1.83356 | 35281 ft | 473 kts | 322° |
| 2026-05-07 06:02 | 53.23429 | -1.87068 | 35482 ft | 474 kts | 310° |
| 2026-05-07 06:03 | 53.25335 | -1.91458 | 35719 ft | 474 kts | 299° |
| 2026-05-07 06:03 | 53.26851 | -1.96342 | 35901 ft | 474 kts | 297° |
| 2026-05-07 06:03 | 53.28324 | -2.01272 | 36068 ft | 476 kts | 297° |
| 2026-05-07 06:04 | 53.31276 | -2.11270 | 36048 ft | 482 kts | 297° |
| 2026-05-07 06:04 | 53.34261 | -2.21320 | 36050 ft | 482 kts | 297° |
| 2026-05-07 06:05 | 53.36763 | -2.31691 | 36044 ft | 482 kts | 288° |
| 2026-05-07 06:05 | 53.38772 | -2.42332 | 36056 ft | 483 kts | 288° |
| 2026-05-07 06:06 | 53.40815 | -2.53050 | 36048 ft | 483 kts | 288° |
| 2026-05-07 06:06 | 53.42831 | -2.63771 | 36038 ft | 482 kts | 288° |
| 2026-05-07 06:07 | 53.44844 | -2.74499 | 36027 ft | 482 kts | 288° |
| 2026-05-07 06:07 | 53.46846 | -2.85245 | 36028 ft | 483 kts | 288° |